Elton, WI

1:28 PM CST on March 03, 2015 (GMT -0600)
Langlade County | Change Station
CLOSE
Current Station
Airport
Location: Antigo,
Elevation: 1522 ft
Nearby Weather Stations
Active Advisory: Winter Weather Advisory

Elev 1522 ft 45.16 °N, 89.11 °W | Updated 13 minutes ago

Snow
Snow
23 °F
Feels Like 13 °F
N
9
Wind Variable Wind from West
Gusts 20 mph

Today
High -- | Low -- °F
--% Chance of Precip.
Yesterday
High -- | Low -- °F
Precip. -- in
6:30 AM 5:45 PM
Waxing Gibbous, 97% visible
Pressure 29.53 in
Visibility 10.0 miles
Clouds Overcast 1800 ft
Windchill 13 °F
Dew Point 18 °F
Humidity 79%
Rainfall 0.12 in
Snow Depth Not available.
UV 1 out of 12
Pollen .40 out of 12
Air Quality Not available.
Flu Activity Not available.
METAR KAIG 031915Z AUTO 27008G17KT 10SM OVC018 M05/M08 A2953 RMK AO2 T10491080

More Conditions Fewer Conditions

Pressure 29.53 in
Visibility 10.0 miles
Clouds Overcast 1800 ft
Windchill 13 °F
Dew Point 18 °F
Humidity 79%
Rainfall 0.12 in
Snow Depth Not available.
UV 1 out of 12
Pollen .40 out of 12
Air Quality Not available.
Flu Activity Not available.
METAR KAIG 031915Z AUTO 27008G17KT 10SM OVC018 M05/M08 A2953 RMK AO2 T10491080

More Conditions Fewer Conditions

10-Day Weather Forecast

Almanac

Astronomy

Mar. 03, 2015 Rise Set
Actual Time
Civil Twilight
Nautical Twilight
Astronomical Twilight
Moon
Length of Visible Light
Length of Day
Tomorrow will be .
, % of the Moon is Illuminated

Today's Extremes

State Highs State Lows

Community

WunderPhotos

Upload Photos

1,802,203 photos uploaded!

WunderBlogs® & News

Nearby

Air Quality

  Air Quality AQ Index Pollutant
Not available.

Snow Depth

Station Depth Elevation

Earthquake Activity

City Distance Mag. Time & Date
Minimum magnitude displayed is 2.5.

Coastal Water Temperatures

Place Temperature

Nearby Weather Stations

Winter Weather Advisory
Statement as of 11:07 AM CST on March 03, 2015

... Winter Weather Advisory remains in effect until 6 PM CST this
evening...

* snow and freezing drizzle will come to an end this afternoon.
The snow may be moderate to heavy for a brief period of time.
Any additional accumulation of snow should be an inch or two
across the north... and little or no accumulation south of
Highway 29.

* Occasional freezing drizzle will also make for treated roads to
become slick.

Precautionary/preparedness actions...

A Winter Weather Advisory for snow means that periods of snow
will cause some travel difficulties. Be prepared for snow covered
roads and limited visibilities... and use caution while driving.
The latest Wisconsin Road conditions can be obtained by calling
511.